createdAt,value
2023-02-24T00:00:39.880Z,98840.45
2023-02-24T00:03:49.609Z,98838.27
2023-02-24T00:06:51.646Z,98835.39
2023-02-24T00:09:53.120Z,98831.17
2023-02-24T00:12:54.628Z,98824.78
2023-02-24T00:16:03.025Z,98825.36
2023-02-24T00:19:05.623Z,98826.16
2023-02-24T00:22:08.420Z,98819.22
2023-02-24T00:25:10.037Z,98818.41
2023-02-24T00:28:11.622Z,98815.40
2023-02-24T00:31:14.393Z,98814.77
2023-02-24T00:34:15.984Z,98802.52
2023-02-24T00:37:17.657Z,98799.84
2023-02-24T00:40:19.305Z,98796.81
2023-02-24T00:43:20.864Z,98794.72
2023-02-24T00:46:23.632Z,98791.11
2023-02-24T00:49:25.219Z,98791.62
2023-02-24T00:52:27.016Z,98787.55
2023-02-24T00:55:28.694Z,98784.31
2023-02-24T00:58:30.259Z,98781.38
2023-02-24T01:01:33.530Z,98779.45
2023-02-24T01:04:35.593Z,98777.90
2023-02-24T01:07:37.872Z,98773.95
2023-02-24T01:10:39.354Z,98766.21
2023-02-24T01:13:41.354Z,98759.02
2023-02-24T01:16:43.995Z,98755.73
2023-02-24T01:19:46.761Z,98753.14
2023-02-24T01:22:52.216Z,98752.45
2023-02-24T01:25:53.887Z,98747.11
2023-02-24T01:28:55.373Z,98746.04
2023-02-24T01:31:57.601Z,98741.73
2023-02-24T01:34:59.364Z,98736.40
2023-02-24T01:38:01.102Z,98732.27
2023-02-24T01:41:02.868Z,98730.20
2023-02-24T01:44:29.992Z,98730.07
2023-02-24T01:47:31.619Z,98728.61
2023-02-24T01:50:34.848Z,98729.04
2023-02-24T01:53:36.684Z,98724.51
2023-02-24T01:56:39.008Z,98721.15
2023-02-24T01:59:40.614Z,98718.35
2023-02-24T02:02:46.752Z,98712.92
2023-02-24T02:05:50.028Z,98713.31
2023-02-24T02:08:52.225Z,98707.61
2023-02-24T02:11:53.949Z,98707.14
2023-02-24T02:14:56.165Z,98705.09
2023-02-24T02:18:03.661Z,98702.48
2023-02-24T02:21:08.421Z,98695.85
2023-02-24T02:24:20.413Z,98695.69
2023-02-24T02:27:24.916Z,98690.90
2023-02-24T02:30:59.677Z,98686.55
2023-02-24T02:34:24.517Z,98682.97
2023-02-24T02:37:34.677Z,98680.85
2023-02-24T02:40:42.900Z,98675.80
2023-02-24T02:44:05.203Z,98674.81
2023-02-24T02:47:14.649Z,98673.95
2023-02-24T02:50:35.753Z,98669.45
2023-02-24T02:53:48.477Z,98668.17
2023-02-24T02:56:56.847Z,98662.46
2023-02-24T03:00:20.052Z,98662.11
2023-02-24T03:03:22.064Z,98655.78
2023-02-24T03:06:29.550Z,98658.13
2023-02-24T03:09:35.690Z,98656.59
2023-02-24T03:12:40.017Z,98652.45
2023-02-24T03:15:41.758Z,98650.90
2023-02-24T03:18:57.997Z,98652.98
2023-02-24T03:22:21.569Z,98653.30
2023-02-24T03:25:26.283Z,98651.61
2023-02-24T03:28:32.814Z,98651.52
2023-02-24T03:31:37.216Z,98645.55
2023-02-24T03:34:56.848Z,98643.93
2023-02-24T03:37:59.248Z,98643.94
2023-02-24T03:41:00.807Z,98643.69
2023-02-24T03:44:02.331Z,98643.64
2023-02-24T03:47:04.459Z,98639.70
2023-02-24T03:50:17.885Z,98636.99
2023-02-24T03:53:38.807Z,98632.71
2023-02-24T03:56:50.260Z,98629.47
2023-02-24T04:00:14.833Z,98624.38
2023-02-24T04:03:35.150Z,98621.65
2023-02-24T04:06:43.987Z,98620.98
2023-02-24T04:10:07.647Z,98615.35
2023-02-24T04:13:25.664Z,98610.52
2023-02-24T04:16:30.932Z,98609.05
2023-02-24T04:19:36.416Z,98606.30
2023-02-24T04:22:39.222Z,98597.13
2023-02-24T04:25:43.196Z,98591.54
2023-02-24T04:28:45.655Z,98588.73
2023-02-24T04:31:51.175Z,98580.13
2023-02-24T04:34:53.163Z,98572.25
2023-02-24T04:37:55.244Z,98570.80
2023-02-24T04:40:56.929Z,98569.00
2023-02-24T04:43:58.664Z,98567.60
2023-02-24T04:47:00.137Z,98564.96
2023-02-24T04:50:02.483Z,98567.41
2023-02-24T04:53:07.426Z,98566.05
2023-02-24T04:56:09.343Z,98563.53
2023-02-24T04:59:11.821Z,98561.90
2023-02-24T05:02:13.445Z,98559.66
2023-02-24T05:05:15.589Z,98553.98
2023-02-24T05:08:17.882Z,98547.13
2023-02-24T05:11:20.043Z,98543.46
2023-02-24T05:14:21.891Z,98544.59
2023-02-24T05:17:23.383Z,98539.41
2023-02-24T05:20:25.318Z,98537.33
2023-02-24T05:23:38.366Z,98534.28
2023-02-24T05:26:40.152Z,98531.99
2023-02-24T05:29:41.726Z,98525.13
2023-02-24T05:32:43.246Z,98524.92
2023-02-24T05:35:45.061Z,98524.41
2023-02-24T05:38:47.069Z,98523.95
2023-02-24T05:41:49.883Z,98523.63
2023-02-24T05:44:51.509Z,98525.39
2023-02-24T05:47:52.969Z,98521.44
2023-02-24T05:50:54.684Z,98522.41
2023-02-24T05:53:56.209Z,98524.33
2023-02-24T05:57:04.393Z,98525.02
2023-02-24T06:00:06.712Z,98524.13
2023-02-24T06:03:08.497Z,98521.10
2023-02-24T06:06:10.360Z,98514.64
2023-02-24T06:09:12.326Z,98516.14
2023-02-24T06:12:14.004Z,98517.40
2023-02-24T06:15:15.633Z,98506.56
2023-02-24T06:18:17.187Z,98502.55
2023-02-24T06:21:19.391Z,98495.30
2023-02-24T06:24:21.195Z,98496.02
2023-02-24T06:27:22.776Z,98494.09
2023-02-24T06:30:25.798Z,98488.24
2023-02-24T06:33:27.314Z,98487.45
2023-02-24T06:36:28.865Z,98485.82
2023-02-24T06:39:30.871Z,98480.73
2023-02-24T06:42:32.300Z,98479.48
2023-02-24T06:45:33.993Z,98471.80
2023-02-24T06:48:35.511Z,98471.27
2023-02-24T06:51:37.158Z,98471.48
2023-02-24T06:54:38.783Z,98468.89
2023-02-24T06:57:40.595Z,98466.00
2023-02-24T07:00:42.174Z,98461.33
2023-02-24T07:03:43.957Z,98458.89
2023-02-24T07:06:48.338Z,98458.73
2023-02-24T07:09:49.862Z,98458.39
2023-02-24T07:12:51.394Z,98451.40
2023-02-24T07:15:53.112Z,98448.02
2023-02-24T07:18:55.185Z,98443.88
2023-02-24T07:21:58.376Z,98444.49
2023-02-24T07:24:59.949Z,98440.73
2023-02-24T07:28:02.082Z,98433.16
2023-02-24T07:31:06.267Z,98431.45
2023-02-24T07:34:08.161Z,98430.05
2023-02-24T07:37:11.694Z,98424.78
2023-02-24T07:40:13.892Z,98423.68
2023-02-24T07:43:16.704Z,98418.02
2023-02-24T07:46:23.381Z,98415.60
2023-02-24T07:49:25.691Z,98411.70
2023-02-24T07:52:30.364Z,98410.05
2023-02-24T07:55:34.345Z,98404.16
2023-02-24T07:58:35.906Z,98402.64
2023-02-24T08:01:37.997Z,98399.66
2023-02-24T08:04:39.745Z,98400.63
2023-02-24T08:07:41.430Z,98396.58
2023-02-24T08:10:43.168Z,98392.10
2023-02-24T08:13:45.053Z,98388.69
2023-02-24T08:16:49.227Z,98389.77
2023-02-24T08:19:51.929Z,98387.07
2023-02-24T08:22:54.514Z,98385.84
2023-02-24T08:25:56.114Z,98380.14
2023-02-24T08:28:58.413Z,98380.29
2023-02-24T08:32:00.355Z,98381.48
2023-02-24T08:35:05.130Z,98375.27
2023-02-24T08:38:15.087Z,98369.11
2023-02-24T08:41:18.839Z,98369.45
2023-02-24T08:44:20.579Z,98361.58
2023-02-24T08:47:22.319Z,98357.91
2023-02-24T08:50:24.144Z,98352.77
2023-02-24T08:53:25.748Z,98354.58
2023-02-24T08:56:32.432Z,98357.18
2023-02-24T08:59:36.610Z,98354.06
2023-02-24T09:02:38.191Z,98352.16
2023-02-24T09:05:40.084Z,98350.98
2023-02-24T09:08:43.010Z,98346.06
2023-02-24T09:11:46.945Z,98341.16
2023-02-24T09:14:49.632Z,98337.25
2023-02-24T09:17:51.986Z,98337.43
2023-02-24T09:20:53.458Z,98335.89
2023-02-24T09:23:55.010Z,98332.38
2023-02-24T09:26:57.104Z,98328.77
2023-02-24T09:29:58.937Z,98330.25
2023-02-24T09:33:00.668Z,98323.27
2023-02-24T09:36:05.667Z,98320.70
2023-02-24T09:39:08.390Z,98316.14
2023-02-24T09:42:12.119Z,98311.20
2023-02-24T09:45:20.773Z,98312.38
2023-02-24T09:48:37.478Z,98307.92
2023-02-24T09:51:39.100Z,98304.48
2023-02-24T09:54:40.876Z,98299.77
2023-02-24T09:58:07.477Z,98297.77
2023-02-24T10:01:15.338Z,98296.62
2023-02-24T10:04:43.996Z,98294.41
2023-02-24T10:07:46.497Z,98288.33
2023-02-24T10:10:48.355Z,98286.77
2023-02-24T10:13:53.794Z,98285.25
2023-02-24T10:16:56.613Z,98279.52
2023-02-24T10:20:11.626Z,98279.71
2023-02-24T10:23:20.148Z,98276.10
2023-02-24T10:27:07.921Z,98271.52
2023-02-24T10:30:30.806Z,98269.20
2023-02-24T10:33:38.690Z,98263.13
2023-02-24T10:36:40.412Z,98257.85
2023-02-24T10:39:42.155Z,98253.33
2023-02-24T10:42:43.950Z,98244.95
2023-02-24T10:45:47.469Z,98239.84
2023-02-24T10:48:57.500Z,98238.36
2023-02-24T10:51:59.219Z,98231.34
2023-02-24T10:55:00.775Z,98224.27
2023-02-24T10:58:03.199Z,98220.99
2023-02-24T11:01:16.061Z,98215.73
2023-02-24T11:04:18.775Z,98210.59
2023-02-24T11:07:20.971Z,98202.20
2023-02-24T11:10:24.301Z,98195.59
2023-02-24T11:13:26.537Z,98189.08
2023-02-24T11:16:28.184Z,98188.48
2023-02-24T11:19:31.551Z,98185.41
2023-02-24T11:22:40.078Z,98177.11
2023-02-24T11:25:46.217Z,98167.64
2023-02-24T11:29:03.899Z,98161.46
2023-02-24T11:32:27.735Z,98154.31
2023-02-24T11:35:33.599Z,98148.27
2023-02-24T11:39:21.757Z,98141.58
2023-02-24T11:42:46.248Z,98134.88
2023-02-24T11:45:54.663Z,98131.92
2023-02-24T11:48:58.617Z,98126.40
2023-02-24T11:52:01.303Z,98119.77
2023-02-24T11:55:05.464Z,98116.11
2023-02-24T11:58:17.138Z,98115.72
2023-02-24T12:01:28.029Z,98110.01
2023-02-24T12:04:36.724Z,98106.85
2023-02-24T12:07:42.730Z,98100.11
2023-02-24T12:10:49.926Z,98092.48
2023-02-24T12:14:04.625Z,98088.22
2023-02-24T12:17:33.968Z,98081.27
2023-02-24T12:20:51.396Z,98076.69
2023-02-24T12:23:53.011Z,98070.39
2023-02-24T12:27:19.513Z,98070.06
2023-02-24T12:30:21.127Z,98070.77
2023-02-24T12:33:35.713Z,98069.52
2023-02-24T12:36:53.844Z,98066.89
2023-02-24T12:40:01.446Z,98059.46
2023-02-24T12:43:36.134Z,98059.44
2023-02-24T12:46:38.969Z,98055.46
2023-02-24T12:49:59.413Z,98047.39
2023-02-24T12:53:19.592Z,98043.66
2023-02-24T12:56:25.250Z,98035.97
2023-02-24T12:59:32.246Z,98033.38
2023-02-24T13:02:44.926Z,98030.77
2023-02-24T13:05:52.750Z,98029.29
2023-02-24T13:09:15.564Z,98026.27
2023-02-24T13:12:38.950Z,98025.08
2023-02-24T13:15:50.455Z,98018.17
2023-02-24T13:18:52.127Z,98015.94
2023-02-24T13:22:17.021Z,98012.00
2023-02-24T13:25:21.591Z,98006.70
2023-02-24T13:28:34.027Z,98009.30
2023-02-24T13:31:44.573Z,98004.77
2023-02-24T13:34:46.612Z,97998.20
2023-02-24T13:37:48.607Z,97999.02
2023-02-24T13:40:50.276Z,97997.67
2023-02-24T13:44:00.361Z,98000.36
2023-02-24T13:47:13.333Z,97997.05
2023-02-24T13:50:24.042Z,97989.22
2023-02-24T13:54:12.416Z,97985.64
2023-02-24T13:57:35.687Z,97984.48
2023-02-24T14:01:02.753Z,97976.48
2023-02-24T14:04:39.263Z,97972.48
2023-02-24T14:07:40.900Z,97957.60
2023-02-24T14:10:44.650Z,97961.05
2023-02-24T14:13:50.166Z,97958.29
2023-02-24T14:16:51.940Z,97960.17
2023-02-24T14:19:53.640Z,97956.69
2023-02-24T14:22:57.745Z,97946.05
2023-02-24T14:26:00.202Z,97944.58
2023-02-24T14:29:02.317Z,97947.06
2023-02-24T14:32:04.002Z,97943.33
2023-02-24T14:35:06.027Z,97939.08
2023-02-24T14:38:37.582Z,97929.68
2023-02-24T14:41:39.299Z,97933.13
2023-02-24T14:44:50.097Z,97928.18
2023-02-24T14:47:53.268Z,97924.00
2023-02-24T14:51:04.632Z,97921.15
2023-02-24T14:54:08.110Z,97908.73
2023-02-24T14:57:17.605Z,97899.32
2023-02-24T15:00:25.387Z,97887.64
2023-02-24T15:03:29.709Z,97884.20
2023-02-24T15:06:33.297Z,97881.52
2023-02-24T15:09:42.394Z,97877.48
2023-02-24T15:12:46.832Z,97870.56
2023-02-24T15:15:48.428Z,97865.80
2023-02-24T15:18:55.287Z,97866.72
2023-02-24T15:21:56.991Z,97862.59
2023-02-24T15:25:24.065Z,97859.95
2023-02-24T15:28:37.416Z,97863.54
2023-02-24T15:31:39.401Z,97853.45
2023-02-24T15:34:44.675Z,97852.13
2023-02-24T15:37:46.269Z,97846.96
2023-02-24T15:40:53.595Z,97845.01
2023-02-24T15:43:55.461Z,97841.53
2023-02-24T15:46:58.729Z,97839.91
2023-02-24T15:50:00.412Z,97836.42
2023-02-24T15:53:04.359Z,97838.15
2023-02-24T15:56:06.057Z,97841.90
2023-02-24T15:59:07.992Z,97837.97
2023-02-24T16:02:14.785Z,97841.41
2023-02-24T16:05:16.570Z,97840.29
2023-02-24T16:08:19.600Z,97842.23
2023-02-24T16:11:25.582Z,97849.58
2023-02-24T16:14:27.239Z,97858.31
2023-02-24T16:17:41.748Z,97870.52
2023-02-24T16:20:43.803Z,97878.92
2023-02-24T16:23:45.528Z,97888.29
2023-02-24T16:26:47.109Z,97886.30
2023-02-24T16:29:49.824Z,97877.42
2023-02-24T16:32:51.718Z,97862.30
2023-02-24T16:35:53.709Z,97856.96
2023-02-24T16:38:55.247Z,97854.48
2023-02-24T16:41:56.717Z,97847.19
2023-02-24T16:44:58.285Z,97842.80
2023-02-24T16:48:02.514Z,97838.45
2023-02-24T16:51:06.220Z,97836.60
2023-02-24T16:54:07.836Z,97834.16
2023-02-24T16:57:09.983Z,97824.68
2023-02-24T17:00:13.963Z,97820.48
2023-02-24T17:03:41.766Z,97815.52
2023-02-24T17:06:43.314Z,97818.29
2023-02-24T17:09:44.895Z,97826.69
2023-02-24T17:12:46.540Z,97823.27
2023-02-24T17:15:50.666Z,97817.13
2023-02-24T17:18:52.228Z,97811.55
2023-02-24T17:21:53.798Z,97796.24
2023-02-24T17:24:55.503Z,97792.75
2023-02-24T17:27:57.856Z,97788.09
2023-02-24T17:30:59.555Z,97787.55
2023-02-24T17:34:01.262Z,97786.20
2023-02-24T17:37:02.712Z,97789.02
2023-02-24T17:40:06.552Z,97784.20
2023-02-24T17:43:08.584Z,97785.51
2023-02-24T17:46:10.189Z,97774.52
2023-02-24T17:49:11.765Z,97778.77
2023-02-24T17:52:13.414Z,97776.41
2023-02-24T17:55:15.300Z,97770.61
2023-02-24T17:58:16.964Z,97760.47
2023-02-24T18:01:18.490Z,97756.11
2023-02-24T18:04:20.047Z,97752.27
2023-02-24T18:07:21.604Z,97744.14
2023-02-24T18:10:23.129Z,97740.84
2023-02-24T18:13:25.819Z,97738.10
2023-02-24T18:16:28.143Z,97732.31
2023-02-24T18:19:29.956Z,97729.85
2023-02-24T18:22:31.605Z,97722.61
2023-02-24T18:25:33.696Z,97722.65
2023-02-24T18:28:35.489Z,97722.48
2023-02-24T18:31:37.197Z,97716.70
2023-02-24T18:34:39.184Z,97718.75
2023-02-24T18:37:40.755Z,97719.16
2023-02-24T18:40:42.307Z,97714.27
2023-02-24T18:43:47.281Z,97707.07
2023-02-24T18:46:48.949Z,97706.08
2023-02-24T18:49:50.613Z,97711.26
2023-02-24T18:52:52.047Z,97708.27
2023-02-24T18:56:05.179Z,97702.33
2023-02-24T18:59:06.820Z,97698.51
2023-02-24T19:02:09.483Z,97694.95
2023-02-24T19:05:11.238Z,97693.03
2023-02-24T19:08:12.870Z,97695.20
2023-02-24T19:11:16.899Z,97688.05
2023-02-24T19:14:19.262Z,97685.61
2023-02-24T19:17:21.065Z,97684.12
2023-02-24T19:20:22.596Z,97683.95
2023-02-24T19:23:24.318Z,97685.79
2023-02-24T19:26:28.026Z,97679.86
2023-02-24T19:29:29.680Z,97676.54
2023-02-24T19:32:31.254Z,97669.89
2023-02-24T19:35:34.063Z,97665.38
2023-02-24T19:38:36.107Z,97662.38
2023-02-24T19:41:37.631Z,97654.33
2023-02-24T19:44:39.150Z,97642.14
2023-02-24T19:47:41.183Z,97638.00
2023-02-24T19:50:42.782Z,97639.61
2023-02-24T19:53:44.995Z,97633.25
2023-02-24T19:56:46.624Z,97630.91
2023-02-24T19:59:50.235Z,97627.09
2023-02-24T20:02:52.382Z,97624.05
2023-02-24T20:05:54.117Z,97621.16
2023-02-24T20:08:56.386Z,97614.25
2023-02-24T20:11:57.993Z,97605.25
2023-02-24T20:14:59.516Z,97600.63
2023-02-24T20:18:01.087Z,97591.12
2023-02-24T20:21:02.865Z,97591.50
2023-02-24T20:24:05.729Z,97583.02
2023-02-24T20:27:07.290Z,97579.27
2023-02-24T20:30:09.313Z,97572.20
2023-02-24T20:33:11.013Z,97569.98
2023-02-24T20:36:14.317Z,97564.41
2023-02-24T20:39:16.580Z,97563.55
2023-02-24T20:42:18.201Z,97559.37
2023-02-24T20:45:19.742Z,97551.91
2023-02-24T20:48:21.299Z,97543.48
2023-02-24T20:51:23.229Z,97538.69
2023-02-24T20:54:25.891Z,97531.12
2023-02-24T20:57:27.971Z,97521.77
2023-02-24T21:00:29.557Z,97513.81
2023-02-24T21:03:31.013Z,97509.21
2023-02-24T21:06:32.680Z,97489.39
2023-02-24T21:09:34.229Z,97481.37
2023-02-24T21:12:35.930Z,97475.33
2023-02-24T21:15:37.632Z,97470.48
2023-02-24T21:18:40.767Z,97463.82
2023-02-24T21:21:42.320Z,97459.35
2023-02-24T21:24:44.074Z,97463.54
2023-02-24T21:27:45.983Z,97462.27
2023-02-24T21:30:47.903Z,97453.98
2023-02-24T21:33:51.266Z,97447.86
2023-02-24T21:36:52.839Z,97447.66
2023-02-24T21:39:54.378Z,97448.92
2023-02-24T21:42:56.012Z,97442.92
2023-02-24T21:46:00.636Z,97431.13
2023-02-24T21:49:02.434Z,97430.02
2023-02-24T21:52:04.050Z,97425.45
2023-02-24T21:55:07.220Z,97422.11
2023-02-24T21:58:08.835Z,97408.86
2023-02-24T22:01:11.211Z,97402.33
2023-02-24T22:04:15.810Z,97396.54
2023-02-24T22:07:17.402Z,97392.07
2023-02-24T22:10:21.681Z,97384.13
2023-02-24T22:13:23.191Z,97379.40
2023-02-24T22:16:25.622Z,97374.27
2023-02-24T22:19:27.757Z,97359.51
2023-02-24T22:22:29.492Z,97356.41
2023-02-24T22:25:31.023Z,97347.84
2023-02-24T22:28:36.562Z,97344.48
2023-02-24T22:31:38.267Z,97355.16
2023-02-24T22:34:39.873Z,97361.77
2023-02-24T22:37:41.360Z,97364.72
2023-02-24T22:40:42.930Z,97359.91
2023-02-24T22:43:44.725Z,97356.79
2023-02-24T22:46:46.960Z,97342.36
2023-02-24T22:49:48.629Z,97332.30
2023-02-24T22:52:50.169Z,97317.90
2023-02-24T22:55:52.313Z,97325.38
2023-02-24T22:58:53.917Z,97313.38
2023-02-24T23:01:55.422Z,97305.39
2023-02-24T23:04:57.036Z,97310.65
2023-02-24T23:07:58.476Z,97320.45
2023-02-24T23:11:09.445Z,97328.48
2023-02-24T23:14:12.981Z,97347.23
2023-02-24T23:17:14.736Z,97364.95
2023-02-24T23:20:16.984Z,97361.42
2023-02-24T23:23:18.532Z,97341.19
2023-02-24T23:26:20.486Z,97333.80
2023-02-24T23:29:23.561Z,97331.20
2023-02-24T23:32:25.292Z,97325.85
2023-02-24T23:35:27.021Z,97318.15
2023-02-24T23:38:28.578Z,97305.14
2023-02-24T23:41:30.151Z,97304.42
2023-02-24T23:44:31.619Z,97297.07
2023-02-24T23:47:33.365Z,97287.25
2023-02-24T23:50:38.855Z,97287.59
2023-02-24T23:53:42.482Z,97279.94
2023-02-24T23:56:44.146Z,97272.66
2023-02-24T23:59:45.848Z,97266.98
